createdAt,value
2018-02-21T00:01:27.521Z,17.17
2018-02-21T00:03:54.014Z,17.77
2018-02-21T00:06:20.349Z,15.67
2018-02-21T00:08:46.697Z,15.30
2018-02-21T00:11:13.062Z,15.83
2018-02-21T00:13:39.410Z,17.00
2018-02-21T00:16:05.758Z,16.47
2018-02-21T00:18:32.128Z,16.53
2018-02-21T00:20:58.550Z,17.37
2018-02-21T00:23:24.902Z,16.27
2018-02-21T00:25:51.286Z,17.10
2018-02-21T00:28:17.742Z,18.00
2018-02-21T00:30:44.174Z,17.10
2018-02-21T00:33:10.677Z,18.37
2018-02-21T00:35:37.065Z,18.13
2018-02-21T00:38:03.481Z,17.30
2018-02-21T00:40:29.857Z,17.27
2018-02-21T00:42:56.242Z,17.97
2018-02-21T00:45:22.577Z,16.97
2018-02-21T00:47:48.901Z,16.10
2018-02-21T00:50:15.338Z,16.93
2018-02-21T00:52:41.670Z,19.33
2018-02-21T00:55:08.055Z,19.00
2018-02-21T00:57:34.461Z,18.27
2018-02-21T01:00:00.834Z,18.03
2018-02-21T01:02:27.286Z,18.63
2018-02-21T01:04:53.737Z,17.27
2018-02-21T01:07:20.132Z,17.80
2018-02-21T01:09:46.487Z,17.27
2018-02-21T01:12:12.910Z,17.57
2018-02-21T01:14:39.250Z,17.83
2018-02-21T01:17:05.637Z,18.10
2018-02-21T01:19:32.055Z,17.50
2018-02-21T01:21:58.438Z,16.57
2018-02-21T01:24:24.833Z,16.13
2018-02-21T01:26:51.330Z,16.70
2018-02-21T01:29:17.685Z,17.47
2018-02-21T01:31:44.134Z,16.93
2018-02-21T01:34:10.526Z,16.47
2018-02-21T01:36:36.897Z,16.20
2018-02-21T01:39:03.389Z,16.63
2018-02-21T01:41:29.822Z,16.93
2018-02-21T01:43:56.198Z,15.37
2018-02-21T01:46:22.565Z,17.13
2018-02-21T01:48:48.922Z,16.60
2018-02-21T01:51:15.362Z,17.33
2018-02-21T01:53:41.816Z,16.70
2018-02-21T01:56:08.205Z,16.23
2018-02-21T01:58:34.604Z,15.87
2018-02-21T02:01:00.995Z,17.00
2018-02-21T02:03:27.365Z,17.50
2018-02-21T02:05:53.813Z,17.07
2018-02-21T02:08:20.202Z,15.67
2018-02-21T02:10:46.633Z,16.67
2018-02-21T02:13:13.141Z,16.50
2018-02-21T02:15:39.530Z,15.33
2018-02-21T02:18:06.010Z,15.33
2018-02-21T02:20:32.516Z,16.77
2018-02-21T02:22:58.918Z,15.07
2018-02-21T02:25:25.334Z,15.53
2018-02-21T02:27:51.758Z,15.80
2018-02-21T02:30:18.178Z,15.63
2018-02-21T02:32:44.619Z,15.33
2018-02-21T02:35:11.054Z,14.60
2018-02-21T02:37:37.426Z,15.17
2018-02-21T02:40:03.824Z,14.53
2018-02-21T02:42:30.371Z,14.90
2018-02-21T02:44:56.724Z,13.97
2018-02-21T02:47:23.137Z,13.70
2018-02-21T02:49:49.601Z,12.90
2018-02-21T02:52:15.981Z,13.83
2018-02-21T02:54:42.309Z,14.03
2018-02-21T02:57:08.742Z,13.70
2018-02-21T02:59:35.118Z,14.07
2018-02-21T03:02:01.482Z,14.03
2018-02-21T03:04:27.893Z,13.80
2018-02-21T03:06:54.327Z,13.23
2018-02-21T03:09:20.748Z,13.30
2018-02-21T03:11:47.181Z,13.90
2018-02-21T03:14:13.536Z,13.27
2018-02-21T03:16:39.905Z,12.80
2018-02-21T03:19:06.374Z,12.70
2018-02-21T03:21:32.790Z,12.80
2018-02-21T03:23:59.208Z,12.97
2018-02-21T03:26:25.640Z,12.93
2018-02-21T03:28:52.001Z,12.47
2018-02-21T03:31:18.345Z,12.50
2018-02-21T03:33:44.778Z,12.70
2018-02-21T03:36:11.190Z,12.77
2018-02-21T03:38:37.599Z,12.93
2018-02-21T03:41:04.030Z,11.63
2018-02-21T03:43:30.502Z,13.33
2018-02-21T03:45:56.895Z,11.20
2018-02-21T03:48:23.278Z,12.20
2018-02-21T03:50:49.654Z,12.20
2018-02-21T03:53:16.091Z,12.23
2018-02-21T03:55:42.464Z,11.60
2018-02-21T03:58:08.801Z,11.43
2018-02-21T04:00:35.393Z,12.37
2018-02-21T04:03:01.802Z,11.57
2018-02-21T04:05:28.154Z,12.37
2018-02-21T04:07:54.556Z,11.70
2018-02-21T04:10:21.009Z,12.27
2018-02-21T04:12:47.405Z,11.27
2018-02-21T04:15:13.814Z,11.43
2018-02-21T04:17:40.212Z,11.93
2018-02-21T04:20:06.681Z,11.83
2018-02-21T04:22:33.129Z,11.83
2018-02-21T04:24:59.535Z,12.60
2018-02-21T04:27:26.049Z,12.30
2018-02-21T04:29:52.428Z,12.23
2018-02-21T04:32:18.888Z,12.47
2018-02-21T04:34:45.430Z,12.20
2018-02-21T04:37:11.792Z,13.07
2018-02-21T04:39:38.166Z,13.60
2018-02-21T04:42:04.673Z,12.77
2018-02-21T04:44:30.997Z,12.93
2018-02-21T04:46:57.398Z,12.43
2018-02-21T04:49:23.988Z,11.87
2018-02-21T04:51:50.392Z,12.20
2018-02-21T04:54:17.812Z,12.03
2018-02-21T05:10:01.124Z,16.40
2018-02-21T05:12:27.461Z,16.30
2018-02-21T05:14:53.929Z,15.83
2018-02-21T05:17:20.358Z,15.67
2018-02-21T05:19:46.765Z,12.77
2018-02-21T05:22:13.169Z,15.10
2018-02-21T05:24:39.697Z,13.23
2018-02-21T05:27:06.121Z,15.87
2018-02-21T05:29:32.463Z,15.43
2018-02-21T05:31:58.857Z,14.50
2018-02-21T05:34:25.277Z,14.87
2018-02-21T05:36:51.710Z,18.83
2018-02-21T05:39:18.041Z,16.30
2018-02-21T05:41:44.490Z,15.47
2018-02-21T05:44:10.949Z,16.03
2018-02-21T05:46:37.354Z,17.33
2018-02-21T05:49:03.751Z,19.87
2018-02-21T05:51:30.210Z,16.10
2018-02-21T05:53:56.686Z,18.00
2018-02-21T05:56:23.551Z,17.97
2018-02-21T05:58:51.276Z,18.70
2018-02-21T06:01:18.538Z,17.80
2018-02-21T06:03:45.121Z,19.93
2018-02-21T06:06:11.583Z,19.87
2018-02-21T06:08:38.010Z,19.10
2018-02-21T06:11:04.533Z,19.73
2018-02-21T06:13:30.974Z,21.37
2018-02-21T06:15:57.429Z,15.10
2018-02-21T06:18:23.839Z,16.47
2018-02-21T06:20:50.334Z,16.17
2018-02-21T06:23:16.721Z,17.30
2018-02-21T06:25:43.197Z,22.87
2018-02-21T06:28:09.818Z,26.90
2018-02-21T06:30:36.194Z,34.93
2018-02-21T06:33:02.584Z,36.97
2018-02-21T06:35:29.092Z,31.40
2018-02-21T06:37:55.464Z,38.70
2018-02-21T06:40:21.834Z,28.23
2018-02-21T06:42:48.301Z,30.07
2018-02-21T06:45:14.718Z,24.70
2018-02-21T06:47:41.097Z,17.07
2018-02-21T06:50:07.578Z,15.43
2018-02-21T06:52:33.974Z,15.73
2018-02-21T06:55:00.477Z,15.80
2018-02-21T06:57:26.875Z,13.67
2018-02-21T06:59:53.220Z,15.40
2018-02-21T07:02:31.885Z,14.20
2018-02-21T07:04:58.339Z,15.20
2018-02-21T07:07:24.760Z,13.90
2018-02-21T07:09:51.294Z,11.77
2018-02-21T07:12:17.754Z,12.73
2018-02-21T07:14:44.221Z,13.80
2018-02-21T07:17:10.621Z,15.27
2018-02-21T07:19:37.185Z,14.17
2018-02-21T07:22:03.640Z,15.43
2018-02-21T07:24:29.999Z,17.47
2018-02-21T07:26:56.485Z,22.30
2018-02-21T07:29:22.894Z,20.67
2018-02-21T07:31:49.329Z,18.63
2018-02-21T07:34:15.788Z,19.93
2018-02-21T07:36:42.174Z,19.67
2018-02-21T07:39:08.565Z,18.67
2018-02-21T07:41:35.047Z,19.03
2018-02-21T07:44:01.452Z,16.13
2018-02-21T07:46:27.816Z,16.27
2018-02-21T07:48:54.270Z,16.57
2018-02-21T07:51:20.649Z,15.00
2018-02-21T07:53:47.110Z,15.20
2018-02-21T07:56:13.554Z,17.47
2018-02-21T07:58:40.030Z,21.07
2018-02-21T08:01:06.567Z,15.83
2018-02-21T08:03:33.005Z,15.87
2018-02-21T08:05:59.641Z,19.23
2018-02-21T08:08:26.138Z,18.90
2018-02-21T08:10:52.527Z,20.27
2018-02-21T08:13:18.886Z,16.47
2018-02-21T08:15:45.315Z,16.03
2018-02-21T08:18:11.726Z,14.60
2018-02-21T08:20:38.210Z,13.53
2018-02-21T08:23:04.634Z,14.37
2018-02-21T08:25:31.025Z,18.53
2018-02-21T08:27:57.435Z,19.93
2018-02-21T08:30:24.040Z,20.43
2018-02-21T08:32:50.486Z,20.60
2018-02-21T08:35:16.921Z,18.37
2018-02-21T08:37:43.431Z,20.27
2018-02-21T08:40:09.833Z,16.73
2018-02-21T08:42:36.265Z,19.47
2018-02-21T08:45:02.721Z,25.97
2018-02-21T08:47:29.086Z,21.57
2018-02-21T08:49:55.470Z,19.33
2018-02-21T08:52:21.950Z,20.53
2018-02-21T08:54:48.392Z,25.07
2018-02-21T08:57:17.657Z,22.13
2018-02-21T08:59:45.211Z,25.40
2018-02-21T09:02:11.623Z,23.80
2018-02-21T09:04:37.985Z,20.97
2018-02-21T09:07:04.431Z,19.23
2018-02-21T09:09:30.823Z,20.00
2018-02-21T09:11:57.170Z,25.27
2018-02-21T09:14:23.614Z,20.47
2018-02-21T09:16:49.962Z,19.17
2018-02-21T09:19:16.397Z,18.57
2018-02-21T09:21:42.864Z,20.10
2018-02-21T09:24:09.230Z,19.60
2018-02-21T09:26:44.653Z,18.00
2018-02-21T09:29:11.405Z,17.47
2018-02-21T09:31:37.805Z,18.87
2018-02-21T09:34:04.250Z,17.40
2018-02-21T09:36:30.739Z,18.07
2018-02-21T09:38:57.210Z,15.90
2018-02-21T09:41:25.840Z,18.13
2018-02-21T09:43:52.301Z,16.90
2018-02-21T09:46:20.947Z,16.50
2018-02-21T09:48:49.334Z,17.60
2018-02-21T09:51:16.366Z,16.57
2018-02-21T09:53:42.739Z,17.83
2018-02-21T09:56:09.798Z,17.80
2018-02-21T09:58:36.394Z,18.70
2018-02-21T10:01:02.789Z,17.70
2018-02-21T10:03:29.290Z,17.93
2018-02-21T10:05:55.703Z,20.23
2018-02-21T10:08:22.054Z,18.33
2018-02-21T10:10:48.467Z,23.27
2018-02-21T10:13:14.830Z,19.77
2018-02-21T10:15:41.236Z,21.97
2018-02-21T10:18:07.712Z,18.13
2018-02-21T10:20:34.180Z,18.77
2018-02-21T10:23:00.690Z,16.80
2018-02-21T10:25:27.066Z,16.30
2018-02-21T10:27:53.539Z,15.70
2018-02-21T10:30:19.937Z,17.53
2018-02-21T10:32:46.423Z,17.83
2018-02-21T10:35:12.840Z,16.87
2018-02-21T10:37:41.382Z,17.73
2018-02-21T10:40:07.794Z,20.37
2018-02-21T10:42:34.290Z,24.27
2018-02-21T10:45:00.683Z,26.30
2018-02-21T10:47:27.041Z,31.23
2018-02-21T10:49:53.457Z,38.20
2018-02-21T10:52:19.906Z,36.30
2018-02-21T10:54:46.254Z,36.80
2018-02-21T10:57:12.706Z,32.43
2018-02-21T10:59:39.090Z,28.10
2018-02-21T11:02:05.560Z,29.03
2018-02-21T11:04:32.067Z,30.83
2018-02-21T11:06:58.482Z,31.47
2018-02-21T11:09:24.962Z,39.17
2018-02-21T11:11:51.453Z,42.57
2018-02-21T11:14:17.833Z,33.57
2018-02-21T11:16:44.245Z,38.77
2018-02-21T11:19:10.761Z,37.20
2018-02-21T11:21:37.113Z,35.27
2018-02-21T11:24:03.611Z,34.10
2018-02-21T11:26:30.062Z,31.77
2018-02-21T11:28:56.407Z,27.10
2018-02-21T11:31:22.897Z,30.40
2018-02-21T11:33:49.284Z,34.57
2018-02-21T11:36:15.678Z,36.97
2018-02-21T11:38:42.168Z,30.60
2018-02-21T11:41:08.626Z,27.33
2018-02-21T11:43:35.043Z,23.27
2018-02-21T11:46:01.614Z,22.03
2018-02-21T11:48:29.382Z,20.77
2018-02-21T11:50:55.875Z,26.60
2018-02-21T11:53:22.386Z,28.60
2018-02-21T11:55:48.737Z,27.27
2018-02-21T11:58:15.177Z,23.80
2018-02-21T12:00:41.665Z,29.40
2018-02-21T12:03:08.161Z,28.00
2018-02-21T12:05:35.469Z,33.33
2018-02-21T12:08:02.390Z,33.43
2018-02-21T12:10:28.838Z,27.23
2018-02-21T12:12:55.232Z,29.83
2018-02-21T12:15:21.713Z,25.13
2018-02-21T12:17:48.165Z,25.00
2018-02-21T12:20:14.498Z,20.43
2018-02-21T12:22:40.961Z,25.00
2018-02-21T12:25:07.418Z,26.53
2018-02-21T12:27:33.830Z,29.93
2018-02-21T12:30:00.443Z,29.03
2018-02-21T12:32:27.651Z,37.87
2018-02-21T12:34:54.351Z,40.20
2018-02-21T12:37:20.832Z,38.00
2018-02-21T12:39:47.657Z,36.03
2018-02-21T12:42:13.993Z,31.43
2018-02-21T12:44:40.430Z,32.03
2018-02-21T12:47:06.814Z,25.60
2018-02-21T12:49:33.224Z,23.33
2018-02-21T12:51:59.726Z,19.27
2018-02-21T12:54:26.198Z,17.17
2018-02-21T12:56:52.566Z,19.20
2018-02-21T12:59:19.085Z,20.43
2018-02-21T13:01:45.486Z,33.67
2018-02-21T13:04:12.163Z,32.23
2018-02-21T13:06:38.582Z,27.13
2018-02-21T13:09:05.175Z,36.00
2018-02-21T13:11:31.549Z,36.70
2018-02-21T13:13:58.017Z,35.57
2018-02-21T13:16:24.436Z,42.20
2018-02-21T13:18:50.839Z,30.30
2018-02-21T13:21:17.284Z,34.33
2018-02-21T13:23:43.762Z,32.77
2018-02-21T13:26:10.174Z,39.77
2018-02-21T13:28:36.573Z,38.40
2018-02-21T13:31:02.961Z,43.70
2018-02-21T13:33:35.830Z,42.00
2018-02-21T13:36:04.270Z,46.90
2018-02-21T13:38:30.699Z,40.63
2018-02-21T13:40:57.191Z,43.63
2018-02-21T13:43:23.554Z,36.20
2018-02-21T13:45:49.933Z,34.53
2018-02-21T13:48:16.357Z,36.73
2018-02-21T13:50:42.739Z,37.10
2018-02-21T13:55:53.716Z,36.13
2018-02-21T13:58:25.129Z,33.27
2018-02-21T14:00:51.736Z,35.13
2018-02-21T14:03:18.149Z,33.60
2018-02-21T14:05:44.621Z,32.10
2018-02-21T14:08:11.042Z,37.60
2018-02-21T14:10:37.510Z,32.73
2018-02-21T14:13:03.962Z,31.23
2018-02-21T14:15:30.457Z,38.17
2018-02-21T14:17:56.889Z,38.37
2018-02-21T14:20:23.385Z,43.23
2018-02-21T14:22:49.803Z,39.07
2018-02-21T14:25:16.215Z,35.17
2018-02-21T14:27:42.726Z,36.20
2018-02-21T14:30:09.134Z,46.37
2018-02-21T14:32:35.642Z,46.20
2018-02-21T14:35:02.163Z,48.47
2018-02-21T14:37:28.607Z,41.30
2018-02-21T14:39:55.041Z,43.57
2018-02-21T14:42:21.510Z,45.33
2018-02-21T14:44:48.094Z,39.93
2018-02-21T14:47:14.478Z,39.10
2018-02-21T14:49:40.991Z,36.60
2018-02-21T14:52:07.550Z,39.97
2018-02-21T14:54:34.031Z,40.20
2018-02-21T14:57:00.412Z,44.07
2018-02-21T14:59:26.790Z,44.07
2018-02-21T15:01:53.301Z,39.53
2018-02-21T15:04:19.718Z,44.50
2018-02-21T15:06:46.190Z,46.20
2018-02-21T15:09:12.769Z,42.90
2018-02-21T15:11:39.247Z,53.13
2018-02-21T15:14:05.637Z,45.57
2018-02-21T15:16:32.070Z,43.20
2018-02-21T15:18:58.442Z,36.23
2018-02-21T15:21:24.898Z,36.63
2018-02-21T15:23:51.354Z,43.20
2018-02-21T15:26:17.730Z,47.63
2018-02-21T15:28:44.274Z,45.53
2018-02-21T15:31:10.800Z,48.33
2018-02-21T15:33:37.198Z,47.00
2018-02-21T15:36:03.698Z,49.90
2018-02-21T15:38:30.183Z,51.13
2018-02-21T15:40:56.565Z,47.83
2018-02-21T15:43:23.159Z,41.40
2018-02-21T15:45:49.702Z,50.23
2018-02-21T15:48:16.195Z,51.53
2018-02-21T15:50:42.629Z,55.07
2018-02-21T15:53:09.122Z,54.30
2018-02-21T15:55:35.551Z,45.03
2018-02-21T15:58:01.981Z,48.27
2018-02-21T16:00:28.480Z,47.13
2018-02-21T16:02:54.827Z,45.60
2018-02-21T16:05:21.232Z,49.97
2018-02-21T16:07:47.913Z,45.77
2018-02-21T16:10:14.335Z,67.77
2018-02-21T16:12:40.731Z,64.60
2018-02-21T16:15:07.164Z,62.87
2018-02-21T16:17:33.685Z,59.50
2018-02-21T16:20:00.161Z,49.37
2018-02-21T16:22:26.645Z,53.03
2018-02-21T16:24:53.085Z,47.60
2018-02-21T16:27:19.505Z,48.37
2018-02-21T16:29:45.944Z,45.57
2018-02-21T16:32:12.361Z,50.20
2018-02-21T16:34:38.746Z,61.63
2018-02-21T16:37:05.226Z,61.10
2018-02-21T16:39:31.862Z,60.93
2018-02-21T16:41:58.265Z,59.10
2018-02-21T16:44:24.725Z,58.17
2018-02-21T16:46:51.129Z,56.47
2018-02-21T16:49:17.754Z,57.57
2018-02-21T16:51:44.214Z,65.60
2018-02-21T16:54:16.605Z,45.53
2018-02-21T16:56:43.113Z,58.73
2018-02-21T16:59:09.553Z,59.60
2018-02-21T17:01:35.906Z,62.97
2018-02-21T17:04:02.326Z,61.60
2018-02-21T17:06:28.798Z,62.83
2018-02-21T17:08:55.251Z,64.97
2018-02-21T17:11:21.666Z,60.43
2018-02-21T17:13:48.075Z,58.50
2018-02-21T17:16:14.525Z,63.17
2018-02-21T17:18:41.081Z,64.40
2018-02-21T17:21:07.425Z,48.00
2018-02-21T17:23:33.850Z,51.73
2018-02-21T17:26:00.447Z,52.33
2018-02-21T17:28:26.888Z,61.57
2018-02-21T17:30:53.334Z,69.13
2018-02-21T17:33:19.870Z,58.93
2018-02-21T17:35:46.302Z,53.80
2018-02-21T17:38:12.738Z,64.87
2018-02-21T17:40:39.269Z,64.27
2018-02-21T17:43:05.685Z,57.83
2018-02-21T17:45:32.137Z,67.33
2018-02-21T17:47:58.581Z,69.13
2018-02-21T17:50:25.062Z,60.07
2018-02-21T17:52:51.488Z,61.43
2018-02-21T17:55:17.902Z,69.97
2018-02-21T17:57:44.338Z,65.33
2018-02-21T18:00:10.815Z,65.50
2018-02-21T18:02:37.683Z,63.67
2018-02-21T18:05:04.179Z,62.77
2018-02-21T18:07:30.581Z,62.50
2018-02-21T18:09:57.166Z,63.13
2018-02-21T18:12:23.665Z,64.80
2018-02-21T18:14:50.048Z,56.13
2018-02-21T18:17:16.521Z,55.13
2018-02-21T18:19:43.708Z,50.43
2018-02-21T18:22:10.176Z,44.63
2018-02-21T18:24:36.617Z,49.60
2018-02-21T18:27:02.997Z,52.60
2018-02-21T18:29:29.406Z,55.53
2018-02-21T18:31:55.845Z,56.30
2018-02-21T18:34:22.468Z,53.93
2018-02-21T18:36:48.918Z,64.90
2018-02-21T18:39:15.481Z,58.73
2018-02-21T18:41:41.878Z,40.40
2018-02-21T18:44:08.246Z,44.50
2018-02-21T18:46:34.697Z,36.20
2018-02-21T18:49:01.153Z,42.37
2018-02-21T18:51:27.545Z,42.07
2018-02-21T18:53:53.989Z,43.73
2018-02-21T18:56:20.478Z,44.27
2018-02-21T18:58:46.933Z,41.13
2018-02-21T19:01:13.358Z,29.03
2018-02-21T19:03:39.742Z,30.27
2018-02-21T19:06:06.110Z,27.20
2018-02-21T19:08:32.550Z,30.43
2018-02-21T19:10:58.962Z,36.00
2018-02-21T19:13:25.391Z,37.83
2018-02-21T19:15:51.872Z,35.93
2018-02-21T19:18:18.324Z,36.33
2018-02-21T19:20:44.752Z,37.63
2018-02-21T19:23:11.227Z,34.53
2018-02-21T19:25:37.645Z,41.93
2018-02-21T19:28:04.037Z,40.97
2018-02-21T19:30:30.511Z,38.87
2018-02-21T19:32:56.921Z,31.47
2018-02-21T19:35:23.331Z,31.57
2018-02-21T19:37:49.728Z,28.07
2018-02-21T19:40:16.173Z,24.73
2018-02-21T19:42:42.550Z,24.43
2018-02-21T19:45:08.982Z,24.03
2018-02-21T19:47:35.414Z,25.27
2018-02-21T19:50:01.806Z,21.93
2018-02-21T19:52:28.237Z,26.53
2018-02-21T19:54:54.674Z,21.77
2018-02-21T19:57:21.125Z,21.73
2018-02-21T19:59:47.617Z,17.87
2018-02-21T20:02:13.987Z,19.67
2018-02-21T20:04:40.370Z,21.40
2018-02-21T20:07:06.815Z,20.03
2018-02-21T20:09:33.238Z,17.23
2018-02-21T20:11:59.692Z,17.30
2018-02-21T20:14:26.165Z,19.20
2018-02-21T20:16:52.546Z,20.17
2018-02-21T20:19:19.017Z,20.03
2018-02-21T20:21:45.510Z,20.80
2018-02-21T20:24:11.946Z,19.90
2018-02-21T20:26:38.374Z,20.87
2018-02-21T20:29:04.782Z,17.53
2018-02-21T20:31:31.191Z,17.13
2018-02-21T20:33:57.592Z,18.23
2018-02-21T20:36:24.032Z,18.07
2018-02-21T20:38:50.401Z,17.37
2018-02-21T20:41:16.796Z,17.80
2018-02-21T20:43:43.234Z,18.53
2018-02-21T20:46:09.638Z,17.77
2018-02-21T20:48:36.042Z,18.90
2018-02-21T20:51:02.396Z,17.77
2018-02-21T20:53:28.805Z,16.47
2018-02-21T20:55:55.286Z,17.50
2018-02-21T20:58:21.616Z,21.37
2018-02-21T21:00:47.981Z,18.27
2018-02-21T21:03:14.496Z,18.67
2018-02-21T21:05:40.916Z,17.23
2018-02-21T21:08:07.328Z,16.93
2018-02-21T21:10:33.761Z,19.07
2018-02-21T21:13:00.127Z,19.33
2018-02-21T21:15:26.554Z,18.87
2018-02-21T21:17:53.013Z,19.57
2018-02-21T21:20:19.387Z,19.97
2018-02-21T21:22:45.774Z,24.53
2018-02-21T21:25:12.209Z,21.83
2018-02-21T21:27:38.625Z,20.50
2018-02-21T21:30:05.358Z,19.30
2018-02-21T21:32:31.817Z,19.80
2018-02-21T21:34:58.163Z,19.67
2018-02-21T21:37:24.569Z,18.57
2018-02-21T21:39:50.958Z,20.33
2018-02-21T21:42:17.698Z,20.53
2018-02-21T21:44:44.142Z,18.03
2018-02-21T21:47:10.553Z,19.70
2018-02-21T21:49:37.100Z,20.87
2018-02-21T21:52:03.537Z,20.30
2018-02-21T21:54:29.902Z,19.13
2018-02-21T21:56:56.353Z,18.50
2018-02-21T21:59:22.769Z,18.83
2018-02-21T22:01:49.164Z,17.90
2018-02-21T22:04:15.577Z,18.30
2018-02-21T22:06:41.978Z,19.97
2018-02-21T22:09:08.362Z,18.23
2018-02-21T22:11:34.802Z,19.13
2018-02-21T22:14:01.214Z,19.47
2018-02-21T22:16:27.629Z,19.37
2018-02-21T22:18:54.125Z,20.60
2018-02-21T22:21:20.472Z,19.57
2018-02-21T22:23:46.883Z,19.37
2018-02-21T22:26:13.321Z,18.47
2018-02-21T22:28:39.689Z,18.20
2018-02-21T22:31:06.049Z,18.90
2018-02-21T22:33:32.626Z,19.90
2018-02-21T22:35:59.066Z,19.73
2018-02-21T22:38:25.521Z,18.03
2018-02-21T22:40:51.916Z,15.87
2018-02-21T22:43:18.390Z,16.70
2018-02-21T22:45:44.833Z,16.17
2018-02-21T22:48:11.249Z,17.77
2018-02-21T22:50:37.689Z,17.30
2018-02-21T22:53:04.165Z,15.97
2018-02-21T22:55:30.725Z,18.10
2018-02-21T22:57:57.150Z,19.90
2018-02-21T23:00:23.646Z,19.30
2018-02-21T23:02:50.105Z,19.50
2018-02-21T23:05:16.468Z,20.07
2018-02-21T23:07:42.845Z,20.37
2018-02-21T23:10:09.450Z,19.53
2018-02-21T23:12:35.832Z,19.07
2018-02-21T23:15:02.165Z,20.50
2018-02-21T23:17:28.640Z,19.17
2018-02-21T23:19:54.990Z,19.43
2018-02-21T23:22:21.361Z,19.50
2018-02-21T23:24:47.792Z,19.53
2018-02-21T23:27:14.222Z,19.73
2018-02-21T23:29:40.639Z,22.07
2018-02-21T23:32:07.038Z,20.97
2018-02-21T23:34:33.434Z,22.13
2018-02-21T23:36:59.762Z,23.00
2018-02-21T23:39:26.189Z,22.23
2018-02-21T23:41:52.585Z,24.97
2018-02-21T23:44:18.954Z,23.13
2018-02-21T23:46:45.398Z,23.30
2018-02-21T23:49:11.807Z,24.30
2018-02-21T23:51:38.237Z,21.80
2018-02-21T23:54:04.685Z,23.33
2018-02-21T23:56:31.073Z,25.17
2018-02-21T23:58:57.445Z,24.73
